Vision — WDF6306 — position and weather

sailwx.info

Track history (hours):
 
Tides and Currents Weather Stations Pressure Air Temp Water Temp Dewpoint Dewpoint Depression Visibility Wind Speed Wind Dir Waves Ship Positions

Vision

Owner: INTREPID SHIP MANAGEMENT, JACKSONVILLE, FL. More information available from US FCC via Universal Licensing System and Coast Guard Vessel Documentation Center.

Last reported at 2017-Mar-30 16:34 UTC. Time now 2017-Mar-30 16:46 UTC.
Position N 47°40' W 122°27'.

Length 199 m; draft 6.4 m.

Type: Towing. MMSI: 366904000.

Date/timePositionNaut miles runAvg speedWind from/ knotsBaromVisibWave heightAir tempDewpointWater temp
2017-Mar-30 16:34N 47°40' W 122°27'1110.7
2017-Mar-30 15:34N 47°29' W 122°25'1110.7
2017-Mar-30 14:34N 47°19' W 122°27'3 2.5
2017-Mar-30 13:08N 47°16' W 122°24'0 0.0
2017-Mar-30 12:26N 47°16' W 122°24'0 0.0
2017-Mar-30 11:32N 47°16' W 122°24'0 0.0
2017-Mar-30 10:32N 47°16' W 122°24'0 0.0
2017-Mar-30 09:20N 47°16' W 122°24'0 0.0
2017-Mar-30 03:32N 47°16' W 122°24'1 0.0
2017-Mar-29 06:33N 47°16' W 122°24'1 1.0
2017-Mar-29 05:26N 47°17' W 122°25'0 0.0
2017-Mar-29 04:26N 47°17' W 122°25'0 0.2
2017-Mar-29 03:29N 47°17' W 122°25'0 0.1
2017-Mar-29 02:32N 47°17' W 122°25'0 0.1
2017-Mar-29 01:20N 47°17' W 122°25'0 0.1
2017-Mar-29 00:32N 47°17' W 122°25'0 0.0
2017-Mar-28 23:29N 47°17' W 122°25'0 0.1
2017-Mar-28 22:32N 47°17' W 122°25'0 0.0
2017-Mar-28 21:29N 47°17' W 122°25'0 0.0
2017-Mar-28 20:29N 47°17' W 122°25'0 0.1
2017-Mar-28 19:14N 47°17' W 122°25'0 0.0
2017-Mar-28 18:32N 47°17' W 122°25'0 0.1
2017-Mar-28 17:32N 47°17' W 122°25'0 0.0
2017-Mar-28 16:29N 47°17' W 122°25'0 0.1
2017-Mar-28 15:26N 47°17' W 122°25'0 0.0
2017-Mar-28 14:29N 47°17' W 122°25'0 0.0
2017-Mar-28 13:14N 47°17' W 122°25'0 0.0
2017-Mar-28 11:32N 47°17' W 122°25'0 0.0
2017-Mar-28 10:32N 47°17' W 122°25'0 0.1
2017-Mar-28 09:32N 47°17' W 122°25'0 0.0
2017-Mar-28 07:26N 47°17' W 122°25'0 0.0
2017-Mar-28 06:32N 47°17' W 122°25'0 0.0
2017-Mar-28 05:14N 47°17' W 122°25'0 0.0
2017-Mar-28 04:23N 47°17' W 122°25'0 0.0
2017-Mar-28 03:05N 47°17' W 122°25'0 0.1
2017-Mar-28 02:29N 47°17' W 122°25'0 0.0
2017-Mar-28 01:17N 47°17' W 122°25'0 0.1
2017-Mar-28 00:32N 47°17' W 122°25'0 0.0
2017-Mar-27 23:26N 47°17' W 122°25'0 0.1
2017-Mar-27 22:32N 47°17' W 122°25'0 0.0
2017-Mar-27 21:29N 47°17' W 122°25'0 0.0
2017-Mar-27 20:26N 47°17' W 122°25'0 0.0
2017-Mar-27 19:23N 47°17' W 122°25'0 0.0
2017-Mar-27 18:23N 47°17' W 122°25'0 0.0
2017-Mar-27 17:29N 47°17' W 122°25'0 0.1
2017-Mar-27 16:20N 47°17' W 122°25'0 0.0
2017-Mar-27 15:32N 47°17' W 122°25'0 0.1
2017-Mar-27 13:32N 47°17' W 122°25'0 0.1
2017-Mar-27 12:32N 47°17' W 122°25'0 0.1
2017-Mar-27 11:32N 47°17' W 122°25'0 0.1
2017-Mar-27 10:33N 47°17' W 122°25'6 6.4
2017-Mar-27 09:33N 47°23' W 122°22'1212.1
2017-Mar-27 08:33N 47°35' W 122°27'9 9.4
2017-Mar-27 07:33N 47°44' W 122°27'1211.6
2017-Mar-27 06:33N 47°56' W 122°31'1110.4
2017-Mar-27 05:28N 48°05' W 122°40'9 9.7
2017-Mar-27 04:33N 48°11' W 122°50'1111.2
2017-Mar-27 03:33N 48°12' W 123°07'1111.3
2017-Mar-27 02:33N 48°09' W 123°24'1010.3
2017-Mar-27 01:33N 48°13' W 123°38'1212.0
2017-Mar-27 00:33N 48°14' W 123°56'1212.4
2017-Mar-26 23:33N 48°19' W 124°13'1212.4
2017-Mar-26 22:33N 48°24' W 124°30'1211.8
2017-Mar-26 21:33N 48°29' W 124°46'1110.6
2017-Mar-26 20:32N 48°26' W 125°02'1312.3
2017-Mar-26 19:30N 48°14' W 125°08'9711.9
2017-Mar-26 11:21N 46°38' W 125°29'911.8
2017-Mar-26 10:33N 46°28' W 125°30'1211.8
2017-Mar-26 09:32N 46°16' W 125°31'54311.3
2017-Mar-24 09:31N 37°17' W 123°54'1212.0
2017-Mar-24 08:33N 37°07' W 123°47'1312.4
2017-Mar-24 07:29N 36°56' W 123°39'1111.8
2017-Mar-24 06:33N 36°46' W 123°33'3811.7
2017-Mar-24 03:16N 36°13' W 123°09'811.6
2017-Mar-24 02:33N 36°06' W 123°04'1111.2
2017-Mar-24 01:33N 35°56' W 122°57'1111.0
2017-Mar-24 00:32N 35°46' W 122°49'1111.3
2017-Mar-23 23:33N 35°37' W 122°42'1111.4
2017-Mar-23 22:33N 35°27' W 122°35'1111.2
2017-Mar-23 21:33N 35°18' W 122°27'1211.5
2017-Mar-23 20:33N 35°08' W 122°20'1111.3
2017-Mar-23 19:33N 34°58' W 122°13'1111.4
2017-Mar-23 18:33N 34°48' W 122°06'1211.6
2017-Mar-23 17:33N 34°38' W 121°59'1211.8
2017-Mar-23 16:33N 34°29' W 121°51'1211.8
2017-Mar-23 15:33N 34°19' W 121°42'1111.1
2017-Mar-23 14:33N 34°10' W 121°35'1110.9
2017-Mar-23 13:33N 34°01' W 121°27'1110.8
2017-Mar-23 12:33N 33°52' W 121°21'10 9.7
2017-Mar-23 11:33N 33°46' W 121°11'1110.9
2017-Mar-23 10:33N 33°45' W 120°58'1111.0
2017-Mar-23 09:33N 33°45' W 120°45'1110.9
2017-Mar-23 08:33N 33°44' W 120°32'1111.0
2017-Mar-23 07:33N 33°44' W 120°19'1111.1
2017-Mar-23 06:31N 33°44' W 120°05'1111.2
2017-Mar-23 05:33N 33°43' W 119°52'1111.5
2017-Mar-23 04:33N 33°42' W 119°38'1111.1
2017-Mar-23 03:33N 33°42' W 119°25'1211.1
2017-Mar-23 02:27N 33°41' W 119°10'1011.4
2017-Mar-23 01:33N 33°41' W 118°58'1211.7
2017-Mar-23 00:33N 33°39' W 118°44'1211.9
2017-Mar-22 23:33N 33°39' W 118°30'1211.1
2017-Mar-22 22:30N 33°40' W 118°16'6 6.1
2017-Mar-22 21:33N 33°45' W 118°16'0 0.0
2017-Mar-22 20:33N 33°45' W 118°16'0 0.0
2017-Mar-22 19:24N 33°45' W 118°16'0 0.0
2017-Mar-21 22:12N 33°45' W 118°16'0 0.0
2017-Mar-21 21:33N 33°45' W 118°16'0 0.0
2017-Mar-21 20:30N 33°45' W 118°16'0 0.0
2017-Mar-21 19:30N 33°45' W 118°16'0 0.0
2017-Mar-21 18:12N 33°45' W 118°16'0 0.0
2017-Mar-21 07:24N 33°45' W 118°16'1 0.2
2017-Mar-21 00:21N 33°44' W 118°16'2 0.6
2017-Mar-20 20:33N 33°44' W 118°14'0 0.1
2017-Mar-20 18:31N 33°44' W 118°14'0 0.1
2017-Mar-20 17:34N 33°44' W 118°14'3 2.5
2017-Mar-20 16:34N 33°43' W 118°11'  
Track history (hours):
 
Tides and Currents Weather Stations Pressure Air Temp Water Temp Dewpoint Dewpoint Depression Visibility Wind Speed Wind Dir Waves Ship Positions

Vision

Owner: INTREPID SHIP MANAGEMENT, JACKSONVILLE, FL. More information available from US FCC via Universal Licensing System and Coast Guard Vessel Documentation Center.

Last reported at 2017-Mar-30 16:34 UTC. Time now 2017-Mar-30 16:46 UTC.
Position N 47°40' W 122°27'.

Length 199 m; draft 6.4 m.

Type: Towing. MMSI: 366904000.

Date/timePositionNaut miles runAvg speedWind from/ knotsBaromVisibWave heightAir tempDewpointWater temp
2017-Mar-30 16:34N 47°40' W 122°27'1110.7
2017-Mar-30 15:34N 47°29' W 122°25'1110.7
2017-Mar-30 14:34N 47°19' W 122°27'3 2.5
2017-Mar-30 13:08N 47°16' W 122°24'0 0.0
2017-Mar-30 12:26N 47°16' W 122°24'0 0.0
2017-Mar-30 11:32N 47°16' W 122°24'0 0.0
2017-Mar-30 10:32N 47°16' W 122°24'0 0.0
2017-Mar-30 09:20N 47°16' W 122°24'0 0.0
2017-Mar-30 03:32N 47°16' W 122°24'1 0.0
2017-Mar-29 06:33N 47°16' W 122°24'1 1.0
2017-Mar-29 05:26N 47°17' W 122°25'0 0.0
2017-Mar-29 04:26N 47°17' W 122°25'0 0.2
2017-Mar-29 03:29N 47°17' W 122°25'0 0.1
2017-Mar-29 02:32N 47°17' W 122°25'0 0.1
2017-Mar-29 01:20N 47°17' W 122°25'0 0.1
2017-Mar-29 00:32N 47°17' W 122°25'0 0.0
2017-Mar-28 23:29N 47°17' W 122°25'0 0.1
2017-Mar-28 22:32N 47°17' W 122°25'0 0.0
2017-Mar-28 21:29N 47°17' W 122°25'0 0.0
2017-Mar-28 20:29N 47°17' W 122°25'0 0.1
2017-Mar-28 19:14N 47°17' W 122°25'0 0.0
2017-Mar-28 18:32N 47°17' W 122°25'0 0.1
2017-Mar-28 17:32N 47°17' W 122°25'0 0.0
2017-Mar-28 16:29N 47°17' W 122°25'0 0.1
2017-Mar-28 15:26N 47°17' W 122°25'0 0.0
2017-Mar-28 14:29N 47°17' W 122°25'0 0.0
2017-Mar-28 13:14N 47°17' W 122°25'0 0.0
2017-Mar-28 11:32N 47°17' W 122°25'0 0.0
2017-Mar-28 10:32N 47°17' W 122°25'0 0.1
2017-Mar-28 09:32N 47°17' W 122°25'0 0.0
2017-Mar-28 07:26N 47°17' W 122°25'0 0.0
2017-Mar-28 06:32N 47°17' W 122°25'0 0.0
2017-Mar-28 05:14N 47°17' W 122°25'0 0.0
2017-Mar-28 04:23N 47°17' W 122°25'0 0.0
2017-Mar-28 03:05N 47°17' W 122°25'0 0.1
2017-Mar-28 02:29N 47°17' W 122°25'0 0.0
2017-Mar-28 01:17N 47°17' W 122°25'0 0.1
2017-Mar-28 00:32N 47°17' W 122°25'0 0.0
2017-Mar-27 23:26N 47°17' W 122°25'0 0.1
2017-Mar-27 22:32N 47°17' W 122°25'0 0.0
2017-Mar-27 21:29N 47°17' W 122°25'0 0.0
2017-Mar-27 20:26N 47°17' W 122°25'0 0.0
2017-Mar-27 19:23N 47°17' W 122°25'0 0.0
2017-Mar-27 18:23N 47°17' W 122°25'0 0.0
2017-Mar-27 17:29N 47°17' W 122°25'0 0.1
2017-Mar-27 16:20N 47°17' W 122°25'0 0.0
2017-Mar-27 15:32N 47°17' W 122°25'0 0.1
2017-Mar-27 13:32N 47°17' W 122°25'0 0.1
2017-Mar-27 12:32N 47°17' W 122°25'0 0.1
2017-Mar-27 11:32N 47°17' W 122°25'0 0.1
2017-Mar-27 10:33N 47°17' W 122°25'6 6.4
2017-Mar-27 09:33N 47°23' W 122°22'1212.1
2017-Mar-27 08:33N 47°35' W 122°27'9 9.4
2017-Mar-27 07:33N 47°44' W 122°27'1211.6
2017-Mar-27 06:33N 47°56' W 122°31'1110.4
2017-Mar-27 05:28N 48°05' W 122°40'9 9.7
2017-Mar-27 04:33N 48°11' W 122°50'1111.2
2017-Mar-27 03:33N 48°12' W 123°07'1111.3
2017-Mar-27 02:33N 48°09' W 123°24'1010.3
2017-Mar-27 01:33N 48°13' W 123°38'1212.0
2017-Mar-27 00:33N 48°14' W 123°56'1212.4
2017-Mar-26 23:33N 48°19' W 124°13'1212.4
2017-Mar-26 22:33N 48°24' W 124°30'1211.8
2017-Mar-26 21:33N 48°29' W 124°46'1110.6
2017-Mar-26 20:32N 48°26' W 125°02'1312.3
2017-Mar-26 19:30N 48°14' W 125°08'9711.9
2017-Mar-26 11:21N 46°38' W 125°29'911.8
2017-Mar-26 10:33N 46°28' W 125°30'1211.8
2017-Mar-26 09:32N 46°16' W 125°31'54311.3
2017-Mar-24 09:31N 37°17' W 123°54'1212.0
2017-Mar-24 08:33N 37°07' W 123°47'1312.4
2017-Mar-24 07:29N 36°56' W 123°39'1111.8
2017-Mar-24 06:33N 36°46' W 123°33'3811.7
2017-Mar-24 03:16N 36°13' W 123°09'811.6
2017-Mar-24 02:33N 36°06' W 123°04'1111.2
2017-Mar-24 01:33N 35°56' W 122°57'1111.0
2017-Mar-24 00:32N 35°46' W 122°49'1111.3
2017-Mar-23 23:33N 35°37' W 122°42'1111.4
2017-Mar-23 22:33N 35°27' W 122°35'1111.2
2017-Mar-23 21:33N 35°18' W 122°27'1211.5
2017-Mar-23 20:33N 35°08' W 122°20'1111.3
2017-Mar-23 19:33N 34°58' W 122°13'1111.4
2017-Mar-23 18:33N 34°48' W 122°06'1211.6
2017-Mar-23 17:33N 34°38' W 121°59'1211.8
2017-Mar-23 16:33N 34°29' W 121°51'1211.8
2017-Mar-23 15:33N 34°19' W 121°42'1111.1
2017-Mar-23 14:33N 34°10' W 121°35'1110.9
2017-Mar-23 13:33N 34°01' W 121°27'1110.8
2017-Mar-23 12:33N 33°52' W 121°21'10 9.7
2017-Mar-23 11:33N 33°46' W 121°11'1110.9
2017-Mar-23 10:33N 33°45' W 120°58'1111.0
2017-Mar-23 09:33N 33°45' W 120°45'1110.9
2017-Mar-23 08:33N 33°44' W 120°32'1111.0
2017-Mar-23 07:33N 33°44' W 120°19'1111.1
2017-Mar-23 06:31N 33°44' W 120°05'1111.2
2017-Mar-23 05:33N 33°43' W 119°52'1111.5
2017-Mar-23 04:33N 33°42' W 119°38'1111.1
2017-Mar-23 03:33N 33°42' W 119°25'1211.1
2017-Mar-23 02:27N 33°41' W 119°10'1011.4
2017-Mar-23 01:33N 33°41' W 118°58'1211.7
2017-Mar-23 00:33N 33°39' W 118°44'1211.9
2017-Mar-22 23:33N 33°39' W 118°30'1211.1
2017-Mar-22 22:30N 33°40' W 118°16'6 6.1
2017-Mar-22 21:33N 33°45' W 118°16'0 0.0
2017-Mar-22 20:33N 33°45' W 118°16'0 0.0
2017-Mar-22 19:24N 33°45' W 118°16'0 0.0
2017-Mar-21 22:12N 33°45' W 118°16'0 0.0
2017-Mar-21 21:33N 33°45' W 118°16'0 0.0
2017-Mar-21 20:30N 33°45' W 118°16'0 0.0
2017-Mar-21 19:30N 33°45' W 118°16'0 0.0
2017-Mar-21 18:12N 33°45' W 118°16'0 0.0
2017-Mar-21 07:24N 33°45' W 118°16'1 0.2
2017-Mar-21 00:21N 33°44' W 118°16'2 0.6
2017-Mar-20 20:33N 33°44' W 118°14'0 0.1
2017-Mar-20 18:31N 33°44' W 118°14'0 0.1
2017-Mar-20 17:34N 33°44' W 118°14'3 2.5
2017-Mar-20 16:34N 33°43' W 118°11'  

Dump ship's entire track history